Terminal Aerodrome Forecast
Issued by NWS Portland, OR

Current Version | Previous Version | Text Only | Print | Product List | Glossary On
Versions: 1 2 3 4 5 6 7 8 9 10 11 12 13 14 15 16 17 18 19 20 21 22 23 24 25 26 27 28 29 30 31 32 33 34 35 36
000
FTUS46 KPQR 020536
TAFTTD
TAF
KTTD 020536Z 0206/0306 25004KT P6SM SCT150
     FM021300 24003KT P6SM SCT008 BKN012 BKN150
     FM021700 24003KT P6SM FEW015
     FM022200 30007KT P6SM SKC=

USA.gov is the U.S. government's official web portal to all federal, state and local government web resources and services.